sensor_id;sensor_type;location;lat;lon;timestamp;temperature;humidity
39493;DHT22;25176;51.060;3.720;2022-12-18T00:00:58;-1.00;99.90
39493;DHT22;25176;51.060;3.720;2022-12-18T00:03:24;-1.40;99.90
39493;DHT22;25176;51.060;3.720;2022-12-18T00:05:50;-1.40;99.90
39493;DHT22;25176;51.060;3.720;2022-12-18T00:08:16;-1.40;99.90
39493;DHT22;25176;51.060;3.720;2022-12-18T00:10:42;-1.50;99.90
39493;DHT22;25176;51.060;3.720;2022-12-18T00:13:07;-1.60;99.90
39493;DHT22;25176;51.060;3.720;2022-12-18T00:15:34;-1.50;99.90
39493;DHT22;25176;51.060;3.720;2022-12-18T00:17:59;-1.30;99.90
39493;DHT22;25176;51.060;3.720;2022-12-18T00:20:24;-1.20;99.90
39493;DHT22;25176;51.060;3.720;2022-12-18T00:22:54;-1.20;99.90
39493;DHT22;25176;51.060;3.720;2022-12-18T00:25:19;-1.40;99.90
39493;DHT22;25176;51.060;3.720;2022-12-18T00:27:45;-1.40;99.90
39493;DHT22;25176;51.060;3.720;2022-12-18T00:30:10;-1.60;99.90
39493;DHT22;25176;51.060;3.720;2022-12-18T00:32:36;-1.60;99.90
39493;DHT22;25176;51.060;3.720;2022-12-18T00:35:02;-1.60;99.90
39493;DHT22;25176;51.060;3.720;2022-12-18T00:37:28;-1.50;99.90
39493;DHT22;25176;51.060;3.720;2022-12-18T00:39:53;-1.40;99.90
39493;DHT22;25176;51.060;3.720;2022-12-18T00:42:18;-1.50;99.90
39493;DHT22;25176;51.060;3.720;2022-12-18T00:45:02;-1.60;99.90
39493;DHT22;25176;51.060;3.720;2022-12-18T00:47:28;-1.50;99.90
39493;DHT22;25176;51.060;3.720;2022-12-18T00:49:54;-1.40;99.90
39493;DHT22;25176;51.060;3.720;2022-12-18T00:52:19;-1.70;99.90
39493;DHT22;25176;51.060;3.720;2022-12-18T00:54:44;-1.90;99.90
39493;DHT22;25176;51.060;3.720;2022-12-18T00:57:10;-2.00;99.90
39493;DHT22;25176;51.060;3.720;2022-12-18T00:59:35;-1.90;99.90
39493;DHT22;25176;51.060;3.720;2022-12-18T01:02:01;-1.70;99.90
39493;DHT22;25176;51.060;3.720;2022-12-18T01:04:26;-1.70;99.90
39493;DHT22;25176;51.060;3.720;2022-12-18T01:06:52;-1.70;99.90
39493;DHT22;25176;51.060;3.720;2022-12-18T01:09:17;-1.80;99.90
39493;DHT22;25176;51.060;3.720;2022-12-18T01:11:43;-1.70;99.90
39493;DHT22;25176;51.060;3.720;2022-12-18T01:14:08;-1.70;99.90
39493;DHT22;25176;51.060;3.720;2022-12-18T01:16:34;-1.90;99.90
39493;DHT22;25176;51.060;3.720;2022-12-18T01:18:59;-1.90;99.90
39493;DHT22;25176;51.060;3.720;2022-12-18T01:21:25;-2.00;99.90
39493;DHT22;25176;51.060;3.720;2022-12-18T01:23:51;-1.90;99.90
39493;DHT22;25176;51.060;3.720;2022-12-18T01:26:17;-1.80;99.90
39493;DHT22;25176;51.060;3.720;2022-12-18T01:28:42;-1.80;99.90
39493;DHT22;25176;51.060;3.720;2022-12-18T01:31:30;-1.80;99.90
39493;DHT22;25176;51.060;3.720;2022-12-18T01:33:54;-1.80;99.90
39493;DHT22;25176;51.060;3.720;2022-12-18T01:36:22;-1.90;99.90
39493;DHT22;25176;51.060;3.720;2022-12-18T01:38:47;-2.10;99.90
39493;DHT22;25176;51.060;3.720;2022-12-18T01:41:13;-2.20;99.90
39493;DHT22;25176;51.060;3.720;2022-12-18T01:43:40;-2.20;99.90
39493;DHT22;25176;51.060;3.720;2022-12-18T01:46:06;-2.20;99.90
39493;DHT22;25176;51.060;3.720;2022-12-18T01:48:31;-2.20;99.90
39493;DHT22;25176;51.060;3.720;2022-12-18T01:50:57;-2.20;99.90
39493;DHT22;25176;51.060;3.720;2022-12-18T01:53:22;-2.10;99.90
39493;DHT22;25176;51.060;3.720;2022-12-18T01:55:55;-1.90;99.90
39493;DHT22;25176;51.060;3.720;2022-12-18T01:58:34;-1.80;99.90
39493;DHT22;25176;51.060;3.720;2022-12-18T02:01:01;-1.90;99.90
39493;DHT22;25176;51.060;3.720;2022-12-18T02:03:26;-1.90;99.90
39493;DHT22;25176;51.060;3.720;2022-12-18T02:08:30;-1.90;99.90
39493;DHT22;25176;51.060;3.720;2022-12-18T02:15:58;-1.90;99.90
39493;DHT22;25176;51.060;3.720;2022-12-18T02:18:31;-2.30;99.90
39493;DHT22;25176;51.060;3.720;2022-12-18T02:28:34;-2.00;99.90
39493;DHT22;25176;51.060;3.720;2022-12-18T02:31:01;-1.80;99.90
39493;DHT22;25176;51.060;3.720;2022-12-18T02:33:28;-1.90;99.90
39493;DHT22;25176;51.060;3.720;2022-12-18T02:35:54;-2.00;99.90
39493;DHT22;25176;51.060;3.720;2022-12-18T02:38:21;-2.00;99.90
39493;DHT22;25176;51.060;3.720;2022-12-18T02:40:47;-2.10;99.90
39493;DHT22;25176;51.060;3.720;2022-12-18T02:43:14;-2.30;99.90
39493;DHT22;25176;51.060;3.720;2022-12-18T02:45:47;-2.40;99.90
39493;DHT22;25176;51.060;3.720;2022-12-18T02:48:13;-2.30;99.90
39493;DHT22;25176;51.060;3.720;2022-12-18T02:50:40;-2.30;99.90
39493;DHT22;25176;51.060;3.720;2022-12-18T02:58:18;-2.40;99.90
39493;DHT22;25176;51.060;3.720;2022-12-18T03:01:20;-2.30;99.90
39493;DHT22;25176;51.060;3.720;2022-12-18T03:03:39;-2.20;99.90
39493;DHT22;25176;51.060;3.720;2022-12-18T03:06:08;-2.30;99.90
39493;DHT22;25176;51.060;3.720;2022-12-18T03:08:37;-2.30;99.90
39493;DHT22;25176;51.060;3.720;2022-12-18T03:11:05;-2.20;99.90
39493;DHT22;25176;51.060;3.720;2022-12-18T03:13:45;-2.10;99.90
39493;DHT22;25176;51.060;3.720;2022-12-18T03:16:14;-2.20;99.90
39493;DHT22;25176;51.060;3.720;2022-12-18T03:18:44;-2.30;99.90
39493;DHT22;25176;51.060;3.720;2022-12-18T03:21:11;-2.20;99.90
39493;DHT22;25176;51.060;3.720;2022-12-18T03:23:42;-2.30;99.90
39493;DHT22;25176;51.060;3.720;2022-12-18T03:26:10;-2.40;99.90
39493;DHT22;25176;51.060;3.720;2022-12-18T03:28:45;-2.40;99.90
39493;DHT22;25176;51.060;3.720;2022-12-18T03:31:12;-2.40;99.90
39493;DHT22;25176;51.060;3.720;2022-12-18T03:33:44;-2.60;99.90
39493;DHT22;25176;51.060;3.720;2022-12-18T03:36:11;-2.80;99.90
39493;DHT22;25176;51.060;3.720;2022-12-18T03:38:36;-2.80;99.90
39493;DHT22;25176;51.060;3.720;2022-12-18T03:43:50;-3.00;99.90
39493;DHT22;25176;51.060;3.720;2022-12-18T03:48:42;-2.90;99.90
39493;DHT22;25176;51.060;3.720;2022-12-18T03:51:15;-2.70;99.90
39493;DHT22;25176;51.060;3.720;2022-12-18T03:56:10;-2.60;99.90
39493;DHT22;25176;51.060;3.720;2022-12-18T03:58:37;-2.50;99.90
39493;DHT22;25176;51.060;3.720;2022-12-18T04:01:05;-2.60;99.90
39493;DHT22;25176;51.060;3.720;2022-12-18T04:03:32;-2.70;99.90
39493;DHT22;25176;51.060;3.720;2022-12-18T04:05:59;-2.70;99.90
39493;DHT22;25176;51.060;3.720;2022-12-18T04:08:25;-2.70;99.90
39493;DHT22;25176;51.060;3.720;2022-12-18T04:10:51;-2.70;99.90
39493;DHT22;25176;51.060;3.720;2022-12-18T04:13:29;-2.80;99.90
39493;DHT22;25176;51.060;3.720;2022-12-18T04:15:55;-3.00;99.90
39493;DHT22;25176;51.060;3.720;2022-12-18T04:18:20;-3.10;99.90
39493;DHT22;25176;51.060;3.720;2022-12-18T04:20:46;-3.30;99.90
39493;DHT22;25176;51.060;3.720;2022-12-18T04:23:11;-3.30;99.90
39493;DHT22;25176;51.060;3.720;2022-12-18T04:25:37;-3.30;99.90
39493;DHT22;25176;51.060;3.720;2022-12-18T04:28:02;-3.30;99.90
39493;DHT22;25176;51.060;3.720;2022-12-18T04:30:28;-3.20;99.90
39493;DHT22;25176;51.060;3.720;2022-12-18T04:32:53;-3.20;99.90
39493;DHT22;25176;51.060;3.720;2022-12-18T04:35:19;-3.30;99.90
39493;DHT22;25176;51.060;3.720;2022-12-18T04:37:44;-3.30;99.90
39493;DHT22;25176;51.060;3.720;2022-12-18T04:40:10;-3.30;99.90
39493;DHT22;25176;51.060;3.720;2022-12-18T04:42:35;-3.30;99.90
39493;DHT22;25176;51.060;3.720;2022-12-18T04:45:01;-3.20;99.90
39493;DHT22;25176;51.060;3.720;2022-12-18T04:47:26;-3.10;99.90
39493;DHT22;25176;51.060;3.720;2022-12-18T04:49:52;-3.10;99.90
39493;DHT22;25176;51.060;3.720;2022-12-18T04:52:17;-3.10;99.90
39493;DHT22;25176;51.060;3.720;2022-12-18T04:54:43;-3.20;99.90
39493;DHT22;25176;51.060;3.720;2022-12-18T04:57:08;-3.20;99.90
39493;DHT22;25176;51.060;3.720;2022-12-18T04:59:34;-3.20;99.90
39493;DHT22;25176;51.060;3.720;2022-12-18T05:01:59;-3.10;99.90
39493;DHT22;25176;51.060;3.720;2022-12-18T05:04:25;-3.10;99.90
39493;DHT22;25176;51.060;3.720;2022-12-18T05:06:50;-3.10;99.90
39493;DHT22;25176;51.060;3.720;2022-12-18T05:09:16;-3.00;99.90
39493;DHT22;25176;51.060;3.720;2022-12-18T05:11:41;-3.00;99.90
39493;DHT22;25176;51.060;3.720;2022-12-18T05:14:07;-3.00;99.90
39493;DHT22;25176;51.060;3.720;2022-12-18T05:16:32;-2.90;99.90
39493;DHT22;25176;51.060;3.720;2022-12-18T05:18:58;-2.70;99.90
39493;DHT22;25176;51.060;3.720;2022-12-18T05:21:23;-2.70;99.90
39493;DHT22;25176;51.060;3.720;2022-12-18T05:23:48;-2.80;99.90
39493;DHT22;25176;51.060;3.720;2022-12-18T05:26:15;-2.90;99.90
39493;DHT22;25176;51.060;3.720;2022-12-18T05:28:41;-2.90;99.90
39493;DHT22;25176;51.060;3.720;2022-12-18T05:31:06;-2.80;99.90
39493;DHT22;25176;51.060;3.720;2022-12-18T05:33:33;-2.70;99.90
39493;DHT22;25176;51.060;3.720;2022-12-18T05:36:02;-2.80;99.90
39493;DHT22;25176;51.060;3.720;2022-12-18T05:38:29;-2.80;99.90
39493;DHT22;25176;51.060;3.720;2022-12-18T05:40:54;-2.80;99.90
39493;DHT22;25176;51.060;3.720;2022-12-18T05:43:20;-2.70;99.90
39493;DHT22;25176;51.060;3.720;2022-12-18T05:45:47;-2.70;99.90
39493;DHT22;25176;51.060;3.720;2022-12-18T05:48:12;-2.60;99.90
39493;DHT22;25176;51.060;3.720;2022-12-18T05:50:38;-2.80;99.90
39493;DHT22;25176;51.060;3.720;2022-12-18T05:53:04;-2.80;99.90
39493;DHT22;25176;51.060;3.720;2022-12-18T05:55:33;-2.80;99.90
39493;DHT22;25176;51.060;3.720;2022-12-18T05:57:59;-2.90;99.90
39493;DHT22;25176;51.060;3.720;2022-12-18T06:00:25;-2.90;99.90
39493;DHT22;25176;51.060;3.720;2022-12-18T06:02:51;-2.80;99.90
39493;DHT22;25176;51.060;3.720;2022-12-18T06:05:16;-2.80;99.90
39493;DHT22;25176;51.060;3.720;2022-12-18T06:07:42;-3.00;99.90
39493;DHT22;25176;51.060;3.720;2022-12-18T06:10:07;-3.10;99.90
39493;DHT22;25176;51.060;3.720;2022-12-18T06:12:33;-3.10;99.90
39493;DHT22;25176;51.060;3.720;2022-12-18T06:15:01;-3.00;99.90
39493;DHT22;25176;51.060;3.720;2022-12-18T06:17:30;-2.70;99.90
39493;DHT22;25176;51.060;3.720;2022-12-18T06:19:55;-2.80;99.90
39493;DHT22;25176;51.060;3.720;2022-12-18T06:22:21;-2.80;99.90
39493;DHT22;25176;51.060;3.720;2022-12-18T06:24:46;-2.90;99.90
39493;DHT22;25176;51.060;3.720;2022-12-18T06:27:12;-2.90;99.90
39493;DHT22;25176;51.060;3.720;2022-12-18T06:29:38;-3.00;99.90
39493;DHT22;25176;51.060;3.720;2022-12-18T06:32:03;-3.10;99.90
39493;DHT22;25176;51.060;3.720;2022-12-18T06:34:29;-3.20;99.90
39493;DHT22;25176;51.060;3.720;2022-12-18T06:36:56;-3.10;99.90
39493;DHT22;25176;51.060;3.720;2022-12-18T06:39:21;-3.10;99.90
39493;DHT22;25176;51.060;3.720;2022-12-18T06:41:47;-3.00;99.90
39493;DHT22;25176;51.060;3.720;2022-12-18T06:44:12;-2.90;99.90
39493;DHT22;25176;51.060;3.720;2022-12-18T06:46:38;-2.90;99.90
39493;DHT22;25176;51.060;3.720;2022-12-18T06:49:03;-3.00;99.90
39493;DHT22;25176;51.060;3.720;2022-12-18T06:51:28;-3.10;99.90
39493;DHT22;25176;51.060;3.720;2022-12-18T06:53:54;-3.10;99.90
39493;DHT22;25176;51.060;3.720;2022-12-18T06:56:20;-3.10;99.90
39493;DHT22;25176;51.060;3.720;2022-12-18T06:58:45;-3.10;99.90
39493;DHT22;25176;51.060;3.720;2022-12-18T07:01:11;-3.10;99.90
39493;DHT22;25176;51.060;3.720;2022-12-18T07:03:37;-3.00;99.90
39493;DHT22;25176;51.060;3.720;2022-12-18T07:06:03;-2.90;99.90
39493;DHT22;25176;51.060;3.720;2022-12-18T07:08:29;-3.00;99.90
39493;DHT22;25176;51.060;3.720;2022-12-18T07:10:55;-2.90;99.90
39493;DHT22;25176;51.060;3.720;2022-12-18T07:13:20;-2.90;99.90
39493;DHT22;25176;51.060;3.720;2022-12-18T07:15:46;-2.90;99.90
39493;DHT22;25176;51.060;3.720;2022-12-18T07:18:11;-2.80;99.90
39493;DHT22;25176;51.060;3.720;2022-12-18T07:20:37;-3.00;99.90
39493;DHT22;25176;51.060;3.720;2022-12-18T07:23:03;-3.00;99.90
39493;DHT22;25176;51.060;3.720;2022-12-18T07:25:29;-3.20;99.90
39493;DHT22;25176;51.060;3.720;2022-12-18T07:27:54;-3.20;99.90
39493;DHT22;25176;51.060;3.720;2022-12-18T07:30:19;-3.20;99.90
39493;DHT22;25176;51.060;3.720;2022-12-18T07:32:45;-3.30;99.90
39493;DHT22;25176;51.060;3.720;2022-12-18T07:35:10;-3.30;99.90
39493;DHT22;25176;51.060;3.720;2022-12-18T07:37:36;-3.20;99.90
39493;DHT22;25176;51.060;3.720;2022-12-18T07:40:01;-3.10;99.90
39493;DHT22;25176;51.060;3.720;2022-12-18T07:42:27;-3.10;99.90
39493;DHT22;25176;51.060;3.720;2022-12-18T07:44:56;-3.00;99.90
39493;DHT22;25176;51.060;3.720;2022-12-18T07:47:21;-3.10;99.90
39493;DHT22;25176;51.060;3.720;2022-12-18T07:49:47;-3.00;99.90
39493;DHT22;25176;51.060;3.720;2022-12-18T07:52:12;-3.10;99.90
39493;DHT22;25176;51.060;3.720;2022-12-18T07:54:38;-3.00;99.90
39493;DHT22;25176;51.060;3.720;2022-12-18T07:57:03;-2.90;99.90
39493;DHT22;25176;51.060;3.720;2022-12-18T07:59:29;-2.90;99.90
39493;DHT22;25176;51.060;3.720;2022-12-18T08:01:54;-2.90;99.90
39493;DHT22;25176;51.060;3.720;2022-12-18T08:04:20;-2.90;99.90
39493;DHT22;25176;51.060;3.720;2022-12-18T08:06:45;-2.90;99.90
39493;DHT22;25176;51.060;3.720;2022-12-18T08:09:11;-3.00;99.90
39493;DHT22;25176;51.060;3.720;2022-12-18T08:11:36;-3.10;99.90
39493;DHT22;25176;51.060;3.720;2022-12-18T08:14:02;-3.10;99.90
39493;DHT22;25176;51.060;3.720;2022-12-18T08:16:28;-3.00;99.90
39493;DHT22;25176;51.060;3.720;2022-12-18T08:18:53;-2.90;99.90
39493;DHT22;25176;51.060;3.720;2022-12-18T08:21:20;-2.70;99.90
39493;DHT22;25176;51.060;3.720;2022-12-18T08:23:47;-2.90;99.90
39493;DHT22;25176;51.060;3.720;2022-12-18T08:26:12;-2.90;99.90
39493;DHT22;25176;51.060;3.720;2022-12-18T08:28:38;-2.80;99.90
39493;DHT22;25176;51.060;3.720;2022-12-18T08:31:04;-2.60;99.90
39493;DHT22;25176;51.060;3.720;2022-12-18T08:33:30;-2.50;99.90
39493;DHT22;25176;51.060;3.720;2022-12-18T08:35:55;-2.60;99.90
39493;DHT22;25176;51.060;3.720;2022-12-18T08:38:21;-2.50;99.90
39493;DHT22;25176;51.060;3.720;2022-12-18T08:40:48;-2.60;99.90
39493;DHT22;25176;51.060;3.720;2022-12-18T08:43:13;-2.60;99.90
39493;DHT22;25176;51.060;3.720;2022-12-18T08:45:57;-2.70;99.90
39493;DHT22;25176;51.060;3.720;2022-12-18T08:48:22;-2.60;99.90
39493;DHT22;25176;51.060;3.720;2022-12-18T08:50:57;-2.60;99.90
39493;DHT22;25176;51.060;3.720;2022-12-18T08:53:25;-2.40;99.90
39493;DHT22;25176;51.060;3.720;2022-12-18T08:55:51;-2.40;99.90
39493;DHT22;25176;51.060;3.720;2022-12-18T08:58:17;-2.40;99.90
39493;DHT22;25176;51.060;3.720;2022-12-18T09:00:43;-2.10;99.90
39493;DHT22;25176;51.060;3.720;2022-12-18T09:03:12;-2.00;99.90
39493;DHT22;25176;51.060;3.720;2022-12-18T09:05:37;-2.00;99.90
39493;DHT22;25176;51.060;3.720;2022-12-18T09:08:03;-2.10;99.90
39493;DHT22;25176;51.060;3.720;2022-12-18T09:10:28;-2.10;99.90
39493;DHT22;25176;51.060;3.720;2022-12-18T09:12:54;-2.10;99.90
39493;DHT22;25176;51.060;3.720;2022-12-18T09:15:21;-2.00;99.90
39493;DHT22;25176;51.060;3.720;2022-12-18T09:17:47;-2.20;99.90
39493;DHT22;25176;51.060;3.720;2022-12-18T09:20:13;-2.10;99.90
39493;DHT22;25176;51.060;3.720;2022-12-18T09:22:39;-2.10;99.90
39493;DHT22;25176;51.060;3.720;2022-12-18T09:25:04;-2.40;99.90
39493;DHT22;25176;51.060;3.720;2022-12-18T09:27:33;-2.30;99.90
39493;DHT22;25176;51.060;3.720;2022-12-18T09:29:58;-2.10;99.90
39493;DHT22;25176;51.060;3.720;2022-12-18T09:32:24;-2.00;99.90
39493;DHT22;25176;51.060;3.720;2022-12-18T09:34:49;-1.80;99.90
39493;DHT22;25176;51.060;3.720;2022-12-18T09:37:15;-1.60;99.90
39493;DHT22;25176;51.060;3.720;2022-12-18T09:39:40;-1.50;99.90
39493;DHT22;25176;51.060;3.720;2022-12-18T09:42:06;-1.30;99.90
39493;DHT22;25176;51.060;3.720;2022-12-18T09:44:42;-1.50;99.90
39493;DHT22;25176;51.060;3.720;2022-12-18T09:49:35;-1.60;99.90
39493;DHT22;25176;51.060;3.720;2022-12-18T09:52:03;-1.70;99.90
39493;DHT22;25176;51.060;3.720;2022-12-18T09:54:33;-1.60;99.90
39493;DHT22;25176;51.060;3.720;2022-12-18T09:57:00;-1.50;99.90
39493;DHT22;25176;51.060;3.720;2022-12-18T09:59:31;-1.30;99.90
39493;DHT22;25176;51.060;3.720;2022-12-18T10:01:59;-1.40;99.90
39493;DHT22;25176;51.060;3.720;2022-12-18T10:04:25;-1.40;99.90
39493;DHT22;25176;51.060;3.720;2022-12-18T10:07:03;-1.30;99.90
39493;DHT22;25176;51.060;3.720;2022-12-18T10:09:48;-1.20;99.90
39493;DHT22;25176;51.060;3.720;2022-12-18T10:12:21;-1.30;99.90
39493;DHT22;25176;51.060;3.720;2022-12-18T10:14:52;-1.60;99.90
39493;DHT22;25176;51.060;3.720;2022-12-18T10:17:26;-1.40;99.90
39493;DHT22;25176;51.060;3.720;2022-12-18T10:20:01;-1.30;99.90
39493;DHT22;25176;51.060;3.720;2022-12-18T10:25:02;-1.30;99.90
39493;DHT22;25176;51.060;3.720;2022-12-18T10:27:29;-1.30;99.90
39493;DHT22;25176;51.060;3.720;2022-12-18T10:29:55;-1.20;99.90
39493;DHT22;25176;51.060;3.720;2022-12-18T10:32:22;-1.20;99.90
39493;DHT22;25176;51.060;3.720;2022-12-18T10:34:48;-1.10;99.90
39493;DHT22;25176;51.060;3.720;2022-12-18T10:37:17;-1.10;99.90
39493;DHT22;25176;51.060;3.720;2022-12-18T10:39:43;-1.00;99.90
39493;DHT22;25176;51.060;3.720;2022-12-18T10:42:10;-1.00;99.90
39493;DHT22;25176;51.060;3.720;2022-12-18T10:44:38;-0.90;99.90
39493;DHT22;25176;51.060;3.720;2022-12-18T10:47:04;-0.70;99.90
39493;DHT22;25176;51.060;3.720;2022-12-18T10:49:32;-0.60;99.90
39493;DHT22;25176;51.060;3.720;2022-12-18T10:52:43;-0.90;99.90
39493;DHT22;25176;51.060;3.720;2022-12-18T10:54:48;-1.00;99.90
39493;DHT22;25176;51.060;3.720;2022-12-18T10:57:33;-1.00;99.90
39493;DHT22;25176;51.060;3.720;2022-12-18T11:00:01;-1.00;99.90
39493;DHT22;25176;51.060;3.720;2022-12-18T11:02:38;-0.80;99.90
39493;DHT22;25176;51.060;3.720;2022-12-18T11:07:48;-0.60;99.90
39493;DHT22;25176;51.060;3.720;2022-12-18T11:10:18;-0.50;99.90
39493;DHT22;25176;51.060;3.720;2022-12-18T11:12:44;-0.50;99.90
39493;DHT22;25176;51.060;3.720;2022-12-18T11:15:20;-0.70;99.90
39493;DHT22;25176;51.060;3.720;2022-12-18T11:17:49;-0.50;99.90
39493;DHT22;25176;51.060;3.720;2022-12-18T11:20:20;-0.50;99.90
39493;DHT22;25176;51.060;3.720;2022-12-18T11:22:54;-0.50;99.90
39493;DHT22;25176;51.060;3.720;2022-12-18T11:25:20;-0.40;99.90
39493;DHT22;25176;51.060;3.720;2022-12-18T11:27:50;-0.30;99.90
39493;DHT22;25176;51.060;3.720;2022-12-18T11:32:45;-0.20;99.90
39493;DHT22;25176;51.060;3.720;2022-12-18T11:35:23;-0.10;99.90
39493;DHT22;25176;51.060;3.720;2022-12-18T11:37:53;0.10;99.90
39493;DHT22;25176;51.060;3.720;2022-12-18T11:40:26;0.20;99.90
39493;DHT22;25176;51.060;3.720;2022-12-18T11:43:03;0.20;99.90
39493;DHT22;25176;51.060;3.720;2022-12-18T11:45:34;0.40;99.90
39493;DHT22;25176;51.060;3.720;2022-12-18T11:48:06;0.60;99.90
39493;DHT22;25176;51.060;3.720;2022-12-18T11:53:02;1.00;99.90
39493;DHT22;25176;51.060;3.720;2022-12-18T12:00:25;1.20;99.00
39493;DHT22;25176;51.060;3.720;2022-12-18T12:15:51;0.60;99.20
39493;DHT22;25176;51.060;3.720;2022-12-18T12:21:02;0.60;99.50
39493;DHT22;25176;51.060;3.720;2022-12-18T12:23:34;0.60;99.50
39493;DHT22;25176;51.060;3.720;2022-12-18T12:26:10;0.70;99.30
39493;DHT22;25176;51.060;3.720;2022-12-18T12:38:41;0.70;99.60
39493;DHT22;25176;51.060;3.720;2022-12-18T12:41:09;0.80;99.70
39493;DHT22;25176;51.060;3.720;2022-12-18T12:43:57;0.70;99.90
39493;DHT22;25176;51.060;3.720;2022-12-18T12:46:23;0.60;99.70
39493;DHT22;25176;51.060;3.720;2022-12-18T12:48:52;0.60;99.90
39493;DHT22;25176;51.060;3.720;2022-12-18T12:51:34;0.70;99.90
39493;DHT22;25176;51.060;3.720;2022-12-18T12:54:01;0.70;99.90
39493;DHT22;25176;51.060;3.720;2022-12-18T12:56:32;0.90;99.90
39493;DHT22;25176;51.060;3.720;2022-12-18T13:04:20;1.50;99.30
39493;DHT22;25176;51.060;3.720;2022-12-18T13:09:12;1.30;99.50
39493;DHT22;25176;51.060;3.720;2022-12-18T13:14:32;1.50;99.10
39493;DHT22;25176;51.060;3.720;2022-12-18T13:17:14;1.60;99.00
39493;DHT22;25176;51.060;3.720;2022-12-18T13:19:39;1.60;99.10
39493;DHT22;25176;51.060;3.720;2022-12-18T13:22:12;1.60;99.00
39493;DHT22;25176;51.060;3.720;2022-12-18T13:24:45;1.50;99.20
39493;DHT22;25176;51.060;3.720;2022-12-18T13:29:55;1.60;99.40
39493;DHT22;25176;51.060;3.720;2022-12-18T13:32:22;1.60;99.10
39493;DHT22;25176;51.060;3.720;2022-12-18T13:34:47;1.80;99.00
39493;DHT22;25176;51.060;3.720;2022-12-18T13:39:57;1.50;99.40
39493;DHT22;25176;51.060;3.720;2022-12-18T13:42:31;1.50;99.60
39493;DHT22;25176;51.060;3.720;2022-12-18T13:46:03;1.50;99.30
39493;DHT22;25176;51.060;3.720;2022-12-18T13:48:02;1.30;99.70
39493;DHT22;25176;51.060;3.720;2022-12-18T13:50:27;1.50;99.80
39493;DHT22;25176;51.060;3.720;2022-12-18T13:52:53;1.50;99.70
39493;DHT22;25176;51.060;3.720;2022-12-18T13:55:19;1.40;99.60
39493;DHT22;25176;51.060;3.720;2022-12-18T13:57:45;1.30;99.90
39493;DHT22;25176;51.060;3.720;2022-12-18T14:00:24;1.30;99.90
39493;DHT22;25176;51.060;3.720;2022-12-18T14:02:51;1.50;99.70
39493;DHT22;25176;51.060;3.720;2022-12-18T14:05:30;1.70;99.30
39493;DHT22;25176;51.060;3.720;2022-12-18T14:07:58;1.40;99.50
39493;DHT22;25176;51.060;3.720;2022-12-18T14:10:25;1.40;99.50
39493;DHT22;25176;51.060;3.720;2022-12-18T14:12:51;1.60;99.50
39493;DHT22;25176;51.060;3.720;2022-12-18T14:17:52;1.80;99.10
39493;DHT22;25176;51.060;3.720;2022-12-18T14:20:18;1.70;98.70
39493;DHT22;25176;51.060;3.720;2022-12-18T14:22:43;1.60;99.00
39493;DHT22;25176;51.060;3.720;2022-12-18T14:25:14;1.60;99.00
39493;DHT22;25176;51.060;3.720;2022-12-18T14:27:47;1.60;99.20
39493;DHT22;25176;51.060;3.720;2022-12-18T14:30:26;1.70;99.40
39493;DHT22;25176;51.060;3.720;2022-12-18T14:35:30;1.40;99.40
39493;DHT22;25176;51.060;3.720;2022-12-18T14:40:40;1.50;99.40
39493;DHT22;25176;51.060;3.720;2022-12-18T14:43:08;1.50;99.30
39493;DHT22;25176;51.060;3.720;2022-12-18T14:45:34;1.60;99.40
39493;DHT22;25176;51.060;3.720;2022-12-18T14:48:00;1.70;99.30
39493;DHT22;25176;51.060;3.720;2022-12-18T14:50:26;1.70;99.10
39493;DHT22;25176;51.060;3.720;2022-12-18T14:52:51;1.50;99.40
39493;DHT22;25176;51.060;3.720;2022-12-18T14:55:17;1.50;99.40
39493;DHT22;25176;51.060;3.720;2022-12-18T14:57:43;1.70;99.40
39493;DHT22;25176;51.060;3.720;2022-12-18T15:00:16;1.50;99.20
39493;DHT22;25176;51.060;3.720;2022-12-18T15:02:43;1.30;99.70
39493;DHT22;25176;51.060;3.720;2022-12-18T15:07:41;1.50;99.40
39493;DHT22;25176;51.060;3.720;2022-12-18T15:12:33;1.50;99.70
39493;DHT22;25176;51.060;3.720;2022-12-18T15:15:02;1.60;99.40
39493;DHT22;25176;51.060;3.720;2022-12-18T15:17:28;1.50;99.50
39493;DHT22;25176;51.060;3.720;2022-12-18T15:19:58;1.40;99.70
39493;DHT22;25176;51.060;3.720;2022-12-18T15:22:28;1.50;99.90
39493;DHT22;25176;51.060;3.720;2022-12-18T15:24:55;1.60;99.80
39493;DHT22;25176;51.060;3.720;2022-12-18T15:27:31;1.50;99.50
39493;DHT22;25176;51.060;3.720;2022-12-18T15:32:33;1.40;99.90
39493;DHT22;25176;51.060;3.720;2022-12-18T15:37:33;1.50;99.90
39493;DHT22;25176;51.060;3.720;2022-12-18T15:39:59;1.60;99.90
39493;DHT22;25176;51.060;3.720;2022-12-18T15:42:24;1.60;99.60
39493;DHT22;25176;51.060;3.720;2022-12-18T15:45:12;1.70;99.40
39493;DHT22;25176;51.060;3.720;2022-12-18T15:47:38;1.80;99.40
39493;DHT22;25176;51.060;3.720;2022-12-18T15:50:04;1.90;99.20
39493;DHT22;25176;51.060;3.720;2022-12-18T15:52:39;2.00;99.00
39493;DHT22;25176;51.060;3.720;2022-12-18T15:55:05;2.00;99.00
39493;DHT22;25176;51.060;3.720;2022-12-18T15:58:06;2.10;98.50
39493;DHT22;25176;51.060;3.720;2022-12-18T16:00:36;2.10;98.60
39493;DHT22;25176;51.060;3.720;2022-12-18T16:03:02;1.90;98.80
39493;DHT22;25176;51.060;3.720;2022-12-18T16:05:28;1.80;99.00
39493;DHT22;25176;51.060;3.720;2022-12-18T16:07:54;1.90;99.00
39493;DHT22;25176;51.060;3.720;2022-12-18T16:10:19;1.70;98.90
39493;DHT22;25176;51.060;3.720;2022-12-18T16:12:45;1.80;99.30
39493;DHT22;25176;51.060;3.720;2022-12-18T16:15:14;1.90;99.10
39493;DHT22;25176;51.060;3.720;2022-12-18T16:17:41;2.10;98.80
39493;DHT22;25176;51.060;3.720;2022-12-18T16:20:17;2.00;98.80
39493;DHT22;25176;51.060;3.720;2022-12-18T16:22:43;2.10;98.70
39493;DHT22;25176;51.060;3.720;2022-12-18T16:25:24;2.10;98.80
39493;DHT22;25176;51.060;3.720;2022-12-18T16:27:50;2.20;98.70
39493;DHT22;25176;51.060;3.720;2022-12-18T16:30:18;2.10;98.50
39493;DHT22;25176;51.060;3.720;2022-12-18T16:32:44;2.00;98.80
39493;DHT22;25176;51.060;3.720;2022-12-18T16:35:10;2.10;98.90
39493;DHT22;25176;51.060;3.720;2022-12-18T16:37:36;2.20;98.70
39493;DHT22;25176;51.060;3.720;2022-12-18T16:40:02;2.20;98.70
39493;DHT22;25176;51.060;3.720;2022-12-18T16:42:27;2.00;98.80
39493;DHT22;25176;51.060;3.720;2022-12-18T16:44:53;2.10;99.00
39493;DHT22;25176;51.060;3.720;2022-12-18T16:47:18;2.20;99.00
39493;DHT22;25176;51.060;3.720;2022-12-18T16:49:44;2.10;99.00
39493;DHT22;25176;51.060;3.720;2022-12-18T16:52:10;2.20;99.20
39493;DHT22;25176;51.060;3.720;2022-12-18T16:54:35;2.30;99.10
39493;DHT22;25176;51.060;3.720;2022-12-18T16:57:01;2.20;99.20
39493;DHT22;25176;51.060;3.720;2022-12-18T16:59:27;2.20;99.20
39493;DHT22;25176;51.060;3.720;2022-12-18T17:01:53;2.20;99.50
39493;DHT22;25176;51.060;3.720;2022-12-18T17:04:20;2.10;99.90
39493;DHT22;25176;51.060;3.720;2022-12-18T17:06:45;2.20;99.90
39493;DHT22;25176;51.060;3.720;2022-12-18T17:09:16;2.30;99.90
39493;DHT22;25176;51.060;3.720;2022-12-18T17:11:44;2.30;99.90
39493;DHT22;25176;51.060;3.720;2022-12-18T17:14:12;2.20;99.90
39493;DHT22;25176;51.060;3.720;2022-12-18T17:16:40;2.20;99.90
39493;DHT22;25176;51.060;3.720;2022-12-18T17:19:06;2.10;99.90
39493;DHT22;25176;51.060;3.720;2022-12-18T17:21:32;2.10;99.90
39493;DHT22;25176;51.060;3.720;2022-12-18T17:24:00;2.10;99.90